createdAt,value
2019-05-22T00:00:48.831Z,101966.20
2019-05-22T00:03:21.969Z,101971.39
2019-05-22T00:05:54.227Z,101969.62
2019-05-22T00:08:25.433Z,101967.44
2019-05-22T00:11:01.845Z,101973.03
2019-05-22T00:13:32.160Z,101977.45
2019-05-22T00:16:03.999Z,101974.80
2019-05-22T00:18:35.388Z,101974.41
2019-05-22T00:21:07.548Z,101971.86
2019-05-22T00:23:38.587Z,101967.06
2019-05-22T00:26:11.129Z,101966.16
2019-05-22T00:28:41.606Z,101968.81
2019-05-22T00:31:13.906Z,101971.41
2019-05-22T00:33:44.170Z,101971.70
2019-05-22T00:36:17.049Z,101971.80
2019-05-22T00:38:47.450Z,101974.30
2019-05-22T00:41:20.761Z,101969.62
2019-05-22T00:43:51.607Z,101977.55
2019-05-22T00:46:23.482Z,101971.95
2019-05-22T00:48:54.410Z,101974.80
2019-05-22T00:51:47.201Z,101984.99
2019-05-22T00:54:34.564Z,101982.85
2019-05-22T00:57:24.282Z,101985.85
2019-05-22T01:00:00.476Z,101987.64
2019-05-22T01:02:33.411Z,101987.13
2019-05-22T01:05:05.032Z,101989.63
2019-05-22T01:07:40.162Z,101992.53
2019-05-22T01:10:12.119Z,101993.09
2019-05-22T01:12:44.059Z,101992.42
2019-05-22T01:15:20.703Z,101997.31
2019-05-22T01:17:51.385Z,101995.48
2019-05-22T01:20:24.403Z,101992.95
2019-05-22T01:22:57.298Z,101998.33
2019-05-22T01:25:28.955Z,101995.58
2019-05-22T01:28:02.360Z,101996.05
2019-05-22T01:30:52.262Z,101999.11
2019-05-22T01:33:26.488Z,101992.22
2019-05-22T01:36:13.647Z,102000.53
2019-05-22T01:38:45.512Z,101999.16
2019-05-22T01:41:21.062Z,102001.34
2019-05-22T01:43:52.782Z,102003.53
2019-05-22T01:46:24.675Z,102007.34
2019-05-22T01:48:59.626Z,102002.51
2019-05-22T01:51:31.493Z,102007.14
2019-05-22T01:54:02.692Z,102005.45
2019-05-22T01:56:34.820Z,102012.89
2019-05-22T01:59:07.680Z,102010.09
2019-05-22T02:01:40.267Z,102011.94
2019-05-22T02:04:10.388Z,102011.69
2019-05-22T02:06:41.507Z,102015.66
2019-05-22T02:09:33.869Z,102016.73
2019-05-22T02:12:10.471Z,102017.39
2019-05-22T02:14:44.589Z,102018.77
2019-05-22T02:17:18.288Z,102009.13
2019-05-22T02:19:49.018Z,102014.64
2019-05-22T02:22:19.212Z,102014.69
2019-05-22T02:24:51.882Z,102018.77
2019-05-22T02:27:24.037Z,102011.22
2019-05-22T02:29:56.149Z,102009.95
2019-05-22T02:32:28.759Z,102005.92
2019-05-22T02:34:58.966Z,102005.25
2019-05-22T02:37:30.599Z,102003.39
2019-05-22T02:40:01.292Z,102006.13
2019-05-22T02:42:32.995Z,102006.34
2019-05-22T02:45:05.161Z,102006.13
2019-05-22T02:47:36.766Z,101999.92
2019-05-22T02:50:08.188Z,102006.13
2019-05-22T02:52:38.582Z,102001.30
2019-05-22T02:55:08.777Z,102007.09
2019-05-22T02:57:38.940Z,102011.12
2019-05-22T03:00:10.962Z,102008.98
2019-05-22T03:02:50.527Z,102012.89
2019-05-22T03:05:22.805Z,102003.83
2019-05-22T03:07:53.798Z,102009.19
2019-05-22T03:10:26.643Z,102006.02
2019-05-22T03:12:58.532Z,102011.52
2019-05-22T03:15:30.075Z,102004.30
2019-05-22T03:18:05.017Z,102002.06
2019-05-22T03:20:35.842Z,102000.42
2019-05-22T03:23:41.939Z,102000.98
2019-05-22T03:26:13.307Z,102003.02
2019-05-22T03:28:46.689Z,102006.70
2019-05-22T03:31:19.034Z,102002.93
2019-05-22T03:33:50.885Z,101999.16
2019-05-22T03:36:22.279Z,102007.05
2019-05-22T03:38:52.951Z,102001.80
2019-05-22T03:41:23.205Z,102002.56
2019-05-22T03:43:55.663Z,102011.74
2019-05-22T03:46:35.883Z,102004.66
2019-05-22T03:49:08.008Z,102013.37
2019-05-22T03:51:38.976Z,102003.59
2019-05-22T03:54:10.903Z,102015.22
2019-05-22T03:56:42.401Z,102013.05
2019-05-22T03:59:13.476Z,102020.20
2019-05-22T04:01:45.051Z,102018.00
2019-05-22T04:04:37.164Z,102017.75
2019-05-22T04:07:10.825Z,102015.86
2019-05-22T04:09:43.019Z,102014.23
2019-05-22T04:12:14.545Z,102024.27
2019-05-22T04:14:46.055Z,102017.68
2019-05-22T04:17:17.574Z,102020.99
2019-05-22T04:19:51.435Z,102027.02
2019-05-22T04:22:21.539Z,102028.24
2019-05-22T04:24:51.869Z,102035.05
2019-05-22T04:27:23.561Z,102035.62
2019-05-22T04:29:54.030Z,102041.68
2019-05-22T04:32:35.055Z,102045.80
2019-05-22T04:35:09.300Z,102040.46
2019-05-22T04:37:40.747Z,102042.98
2019-05-22T04:40:51.343Z,102052.92
2019-05-22T04:43:23.779Z,102062.64
2019-05-22T04:45:56.971Z,102058.27
2019-05-22T04:48:27.750Z,102062.05
2019-05-22T04:51:07.323Z,102056.77
2019-05-22T04:53:38.488Z,102058.64
2019-05-22T04:56:11.492Z,102061.00
2019-05-22T04:58:42.214Z,102062.62
2019-05-22T05:01:14.096Z,102065.12
2019-05-22T05:03:44.367Z,102060.89
2019-05-22T05:06:15.021Z,102064.61
2019-05-22T05:08:45.587Z,102061.75
2019-05-22T05:11:17.535Z,102069.66
2019-05-22T05:14:06.744Z,102062.72
2019-05-22T05:16:38.797Z,102065.13
2019-05-22T05:19:08.965Z,102058.48
2019-05-22T05:21:40.078Z,102064.26
2019-05-22T05:24:10.201Z,102071.19
2019-05-22T05:26:41.337Z,102069.52
2019-05-22T05:29:33.512Z,102069.30
2019-05-22T05:32:06.186Z,102072.98
2019-05-22T05:34:47.929Z,102074.04
2019-05-22T05:37:23.103Z,102075.67
2019-05-22T05:40:41.677Z,102076.94
2019-05-22T05:43:15.806Z,102083.91
2019-05-22T05:45:51.986Z,102079.49
2019-05-22T05:48:23.775Z,102079.33
2019-05-22T05:51:30.402Z,102080.97
2019-05-22T05:54:06.200Z,102086.77
2019-05-22T05:56:39.236Z,102081.17
2019-05-22T05:59:12.243Z,102090.28
2019-05-22T06:01:48.859Z,102078.34
2019-05-22T06:04:34.639Z,102086.19
2019-05-22T06:07:18.985Z,102081.13
2019-05-22T06:10:13.393Z,102089.81
2019-05-22T06:12:43.883Z,102095.34
2019-05-22T06:15:15.088Z,102091.92
2019-05-22T06:18:44.452Z,102092.23
2019-05-22T06:21:14.668Z,102094.64
2019-05-22T06:24:28.086Z,102102.05
2019-05-22T06:27:30.045Z,102101.45
2019-05-22T06:30:13.321Z,102102.38
2019-05-22T06:33:20.600Z,102102.77
2019-05-22T06:35:52.321Z,102106.29
2019-05-22T06:39:03.176Z,102109.13
2019-05-22T06:41:35.706Z,102102.52
2019-05-22T06:44:42.587Z,102105.38
2019-05-22T06:47:18.124Z,102096.83
2019-05-22T06:49:57.083Z,102091.07
2019-05-22T06:52:28.088Z,102086.46
2019-05-22T06:54:58.773Z,102094.16
2019-05-22T06:57:33.150Z,102096.73
2019-05-22T07:00:15.220Z,102104.56
2019-05-22T07:02:45.700Z,102105.80
2019-05-22T07:05:16.373Z,102099.69
2019-05-22T07:07:47.023Z,102103.47
2019-05-22T07:10:17.166Z,102102.98
2019-05-22T07:12:50.527Z,102102.42
2019-05-22T07:15:31.761Z,102105.05
2019-05-22T07:18:03.115Z,102116.77
2019-05-22T07:20:35.669Z,102109.03
2019-05-22T07:23:08.035Z,102119.83
2019-05-22T07:25:40.223Z,102115.14
2019-05-22T07:28:12.477Z,102122.25
2019-05-22T07:30:42.848Z,102122.70
2019-05-22T07:33:13.379Z,102122.73
2019-05-22T07:35:56.724Z,102127.54
2019-05-22T07:38:17.535Z,102125.72
2019-05-22T07:40:50.398Z,102134.70
2019-05-22T07:43:22.523Z,102132.28
2019-05-22T07:45:55.617Z,102132.18
2019-05-22T07:48:28.982Z,102135.06
2019-05-22T07:50:59.542Z,102130.68
2019-05-22T07:53:29.862Z,102127.75
2019-05-22T07:56:02.701Z,102123.16
2019-05-22T07:58:34.874Z,102130.11
2019-05-22T08:01:09.655Z,102127.63
2019-05-22T08:03:42.924Z,102128.95
2019-05-22T08:06:17.028Z,102129.82
2019-05-22T08:08:49.282Z,102124.17
2019-05-22T08:11:19.808Z,102124.87
2019-05-22T08:13:50.625Z,102125.56
2019-05-22T08:16:21.085Z,102130.60
2019-05-22T08:18:51.956Z,102132.72
2019-05-22T08:21:23.606Z,102133.84
2019-05-22T08:23:55.714Z,102136.98
2019-05-22T08:26:27.064Z,102139.94
2019-05-22T08:29:01.647Z,102144.20
2019-05-22T08:31:32.062Z,102143.75
2019-05-22T08:34:03.014Z,102140.62
2019-05-22T08:36:38.444Z,102137.50
2019-05-22T08:39:10.035Z,102132.32
2019-05-22T08:41:43.302Z,102129.20
2019-05-22T08:44:17.277Z,102131.97
2019-05-22T08:46:46.920Z,102136.41
2019-05-22T08:49:17.605Z,102135.35
2019-05-22T08:51:48.827Z,102129.53
2019-05-22T08:54:19.890Z,102123.06
2019-05-22T08:56:51.459Z,102127.28
2019-05-22T08:59:22.176Z,102124.23
2019-05-22T09:01:54.708Z,102118.55
2019-05-22T09:04:25.021Z,102118.85
2019-05-22T22:12:52.515Z,102057.63
2019-05-22T22:15:23.236Z,102058.73
2019-05-22T22:17:53.589Z,102056.14
2019-05-22T22:20:24.208Z,102064.17
2019-05-22T22:22:54.459Z,102059.23
2019-05-22T22:25:25.596Z,102051.30
2019-05-22T22:27:56.079Z,102056.58
2019-05-22T22:30:37.693Z,102051.70
2019-05-22T22:33:10.595Z,102047.89
2019-05-22T22:35:41.259Z,102046.08
2019-05-22T22:38:11.649Z,102042.55
2019-05-22T22:40:43.989Z,102051.23
2019-05-22T22:43:15.429Z,102046.48
2019-05-22T22:45:56.917Z,102043.83
2019-05-22T22:48:33.013Z,102053.36
2019-05-22T22:51:06.696Z,102044.33
2019-05-22T22:53:49.693Z,102049.03
2019-05-22T22:56:29.344Z,102039.73
2019-05-22T22:59:10.598Z,102046.30
2019-05-22T23:01:43.694Z,102049.05
2019-05-22T23:04:16.653Z,102046.78
2019-05-22T23:06:46.908Z,102044.98
2019-05-22T23:09:18.766Z,102040.95
2019-05-22T23:11:51.129Z,102039.02
2019-05-22T23:14:23.030Z,102044.00
2019-05-22T23:16:54.429Z,102043.19
2019-05-22T23:19:32.083Z,102042.32
2019-05-22T23:22:01.499Z,102042.86
2019-05-22T23:24:37.982Z,102040.60
2019-05-22T23:27:10.355Z,102041.91
2019-05-22T23:29:42.368Z,102038.59
2019-05-22T23:32:16.966Z,102034.66
2019-05-22T23:34:48.106Z,102033.52
2019-05-22T23:37:21.189Z,102037.22
2019-05-22T23:39:53.827Z,102032.56
2019-05-22T23:42:35.704Z,102034.08
2019-05-22T23:45:10.411Z,102032.63
2019-05-22T23:47:50.937Z,102037.80
2019-05-22T23:50:23.247Z,102023.67
2019-05-22T23:52:54.383Z,102024.80
2019-05-22T23:55:25.402Z,102018.17
2019-05-22T23:57:56.103Z,102025.60
